Terminal Aerodrome Forecast
Issued by NWS

Home | Current Version | Previous Version | Text Only | Print | Product List | Glossary On
Versions: 1 2 3 4 5 6 7 8 9 10 11 12 13
000
FTPA31 PHFO 291732
TAFHKO
TAF
PHKO 291732Z 2918/3018 07006KT P6SM SKC
     FM291900 22009KT P6SM SCT060
     FM300200 19007KT P6SM BKN060
     FM300700 11006KT P6SM SCT040=

USA.gov is the U.S. government's official web portal to all federal, state and local government web resources and services.